Nearby METAR Reports

 

KBED - Bedford, Massachusetts, USA
Distance from station: ENE 12mi, 20km
Updated: Wed, 26-Feb-2020 9:51am EST
Overcast
Overcast
 Wind from NE
Wind: NE 6 mph , 9 km/h
Temperature: 46°F , 8°C
Wind Chill: 43°F , 6°C
Dew Point: 37°F , 3°C
Humidity: 71%
Barometer: 29.99 inHg , 1015.6 hPa
Clouds: Overcast
Visibility: 10 miles , 16 km
Cloud details: Overcast 4900 ft
2020/02/26 14:51 KBED 261451Z 04005KT 10SM OVC049 08/03 A2999 RMK AO2 SLP170 60000 T00780028 51009
KFIT - Fitchburg, Massachusetts, USA
Distance from station: NW 15mi, 24km
Updated: Wed, 26-Feb-2020 9:52am EST
Overcast
Overcast
 Wind from NE
Wind: NE 7 mph , 11 km/h
Temperature: 45°F , 7°C
Wind Chill: 41°F , 5°C
Dew Point: 34°F , 1°C
Humidity: 66%
Barometer: 29.99 inHg , 1015.6 hPa
Clouds: Overcast
Visibility: 10 miles , 16 km
Cloud details: Overcast 4900 ft
2020/02/26 14:52 KFIT 261452Z AUTO 05006KT 10SM OVC049 07/01 A2999 RMK AO2 SLP159 60000 T00720011 50006
 
KORH - Worcester, Massachusetts, USA
Distance from station: WSW 20mi, 32km
Updated: Wed, 26-Feb-2020 9:54am EST
Overcast
Overcast
 Wind from ENE
Wind: ENE 7 mph , 11 km/h
Temperature: 41°F , 5°C
Wind Chill: 36°F , 2°C
Dew Point: 36°F , 2°C
Humidity: 81%
Barometer: 29.97 inHg , 1014.9 hPa
Clouds: Overcast
Visibility: 10 miles , 16 km
Cloud details: Mostly cloudy 3100 ft
Overcast 4200 ft
2020/02/26 14:54 KORH 261454Z 06006KT 10SM BKN031 OVC042 05/02 A2997 RMK AO2 SLP155 60000 T00500017 50006
KOWD - Norwood, Massachusetts, USA
Distance from station: SE 24mi, 39km
Updated: Wed, 26-Feb-2020 9:53am EST
Mist, Overcast
Mist, Overcast
 Wind from NE
Wind: NE 8 mph , 13 km/h
Temperature: 48°F , 9°C
Wind Chill: 44°F , 7°C
Dew Point: 37°F , 3°C
Humidity: 66%
Barometer: 30.00 inHg , 1015.9 hPa
Summary: Mist
Clouds: Overcast
Visibility: 10 miles , 16 km
Cloud details: Overcast 5000 ft
2020/02/26 14:53 KOWD 261453Z 05007KT 10SM BR OVC050 09/03 A3000 RMK AO2 SLP157 T00890033 50012
 
KMQE - East Milton, Massachusetts, USA
Distance from station: ESE 25mi, 40km
Updated: Wed, 26-Feb-2020 9:51am EST

 Wind from varies
Wind: varies 5 mph , 7 km/h
Temperature: 43°F , 6°C
Wind Chill: 40°F , 4°C
Dew Point: 37°F , 3°C
Humidity: 81%
Barometer: 29.97 inHg , 1014.9 hPa
2020/02/26 14:51 KMQE 261451Z AUTO VRB04KT 06/03 A2997 RMK AO1 SLP163 T00560033 50012
KASH - Nashua/Boire Fld, New Hampshire, USA
Distance from station: N 26mi, 42km
Updated: Wed, 26-Feb-2020 9:56am EST
Mostly cloudy
Mostly cloudy
 Wind from calm
Wind: Calm
Temperature: 45°F , 7°C
Dew Point: 37°F , 3°C
Humidity: 76%
Barometer: 30.00 inHg , 1015.9 hPa
Clouds: Mostly cloudy
Visibility: 10 miles , 16 km
Cloud details: Mostly cloudy 5500 ft
2020/02/26 14:56 KASH 261456Z 00000KT 10SM BKN055 07/03 A3000 RMK AO2 SLP166 60000 T00720028 50005
 
KBOS - Boston, Massachusetts, USA
Distance from station: E 26mi, 42km
Updated: Wed, 26-Feb-2020 9:54am EST
Overcast
Overcast
 Wind from NE
Wind: NE 7 mph , 11 km/h
Temperature: 48°F , 9°C
Wind Chill: 45°F , 7°C
Dew Point: 37°F , 3°C
Humidity: 66%
Barometer: 30.00 inHg , 1015.9 hPa
Clouds: Overcast
Visibility: 10 miles , 16 km
Cloud details: Overcast 5500 ft
2020/02/26 14:54 KBOS 261454Z 05006KT 10SM OVC055 09/03 A3000 RMK AO2 SLP159 T00890028 51012
KLWM - Lawrence, Massachusetts, USA
Distance from station: NE 29mi, 47km
Updated: Wed, 26-Feb-2020 9:54am EST
Mostly cloudy
Mostly cloudy
 Wind from ENE
Wind: ENE 8 mph , 13 km/h
Temperature: 46°F , 8°C
Wind Chill: 42°F , 6°C
Dew Point: 36°F , 2°C
Humidity: 66%
Barometer: 30.01 inHg , 1016.3 hPa
Clouds: Mostly cloudy
Visibility: 10 miles , 16 km
Cloud details: Mostly cloudy 5500 ft
Mostly cloudy 8000 ft
2020/02/26 14:54 KLWM 261454Z 07007KT 10SM BKN055 BKN080 08/02 A3001 RMK AO2 SLP164 T00830017 50008
 
KBVY - Beverly, Massachusetts, USA
Distance from station: ENE 33mi, 54km
Updated: Wed, 26-Feb-2020 9:53am EST
Overcast
Overcast
 Wind from NE
Wind: NE 12 mph , 19 km/h
Temperature: 46°F , 8°C
Wind Chill: 40°F , 4°C
Dew Point: 36°F , 2°C
Humidity: 66%
Barometer: 29.99 inHg , 1015.6 hPa
Clouds: Overcast
Visibility: 10 miles , 16 km
Cloud details: Overcast 5500 ft
2020/02/26 14:53 KBVY 261453Z 05010KT 10SM OVC055 08/02 A2999 RMK AO2 SLP153 T00780017 51009
KSFZ - Pawtucket, Rhode Island, USA
Distance from station: S 34mi, 54km
Updated: Wed, 26-Feb-2020 9:56am EST
Overcast
Overcast
 Wind from ENE
Wind: ENE 7 mph , 11 km/h
Temperature: 43°F , 6°C
Wind Chill: 39°F , 4°C
Dew Point: 41°F , 5°C
Humidity: 93%
Barometer: 29.98 inHg , 1015.2 hPa
Clouds: Overcast
Visibility: 9 miles , 14 km
Cloud details: Mostly cloudy 700 ft
Overcast 3300 ft
2020/02/26 14:56 KSFZ 261456Z AUTO 06006KT 9SM BKN007 OVC033 06/05 A2998 RMK AO2 RAB40E50 SLP102 P0000 60001 T00610050 50011
 
KAFN - Jaffrey, New Hampshire, USA
Distance from station: NW 36mi, 59km
Updated: Wed, 26-Feb-2020 9:52am EST
Mostly cloudy
Mostly cloudy
 Wind from NNW
Wind: NNW 5 mph , 7 km/h
Temperature: 43°F , 6°C
Wind Chill: 40°F , 4°C
Dew Point: 36°F , 2°C
Humidity: 76%
Barometer: 29.96 inHg , 1014.6 hPa
Clouds: Mostly cloudy
Visibility: 10 miles , 16 km
Cloud details: Mostly cloudy 5000 ft
2020/02/26 14:52 KAFN 261452Z AUTO 34004KT 10SM BKN050 06/02 A2996 RMK AO2 SLP159 60000 T00560022 58006
KMHT - Manchester, New Hampshire, USA
Distance from station: N 37mi, 59km
Updated: Wed, 26-Feb-2020 9:53am EST
Mostly cloudy
Mostly cloudy
 Wind from N
Wind: N 7 mph , 11 km/h
Temperature: 46°F , 8°C
Wind Chill: 42°F , 6°C
Dew Point: 36°F , 2°C
Humidity: 66%
Barometer: 29.99 inHg , 1015.6 hPa
Clouds: Mostly cloudy
Visibility: 10 miles , 16 km
Cloud details: Mostly cloudy 6000 ft
2020/02/26 14:53 KMHT 261453Z 01006KT 10SM BKN060 08/02 A2999 RMK AO2 SLP170 T00780017 50006
 
KORE - Orange, Massachusetts, USA
Distance from station: WNW 40mi, 65km
Updated: Wed, 26-Feb-2020 9:52am EST
Overcast
Overcast
 Wind from calm
Wind: Calm
Temperature: 45°F , 7°C
Dew Point: 37°F , 3°C
Humidity: 76%
Barometer: 29.98 inHg , 1015.2 hPa
Clouds: Overcast
Visibility: 10 miles , 16 km
Cloud details: Overcast 4100 ft
2020/02/26 14:52 KORE 261452Z AUTO 00000KT 10SM OVC041 07/03 A2998 RMK AO2 SLP158 60000 T00720028 58004
KTAN - Taunton, Massachusetts, USA
Distance from station: SE 45mi, 72km
Updated: Wed, 26-Feb-2020 9:52am EST
Overcast
Overcast
 Wind from N
Wind: N 3 mph , 6 km/h
Temperature: 45°F , 7°C
Dew Point: 39°F , 4°C
Humidity: 81%
Barometer: 29.99 inHg , 1015.6 hPa
Clouds: Overcast
Visibility: 10 miles , 16 km
Cloud details: Few Clouds 1100 ft
Overcast 3900 ft
2020/02/26 14:52 KTAN 261452Z AUTO 01003KT 10SM FEW011 OVC039 07/04 A2999 RMK AO2 SLP154 T00720044 50011
 
KPVD - Providence/Green, Rhode Island, USA
Distance from station: S 48mi, 77km
Updated: Wed, 26-Feb-2020 10:02am EST
Mist, Overcast
Mist, Overcast
 Wind from NE
Wind: NE 9 mph , 15 km/h
Temperature: 46°F , 8°C
Wind Chill: 41°F , 5°C
Dew Point: 43°F , 6°C
Humidity: 87%
Barometer: 29.99 inHg , 1015.6 hPa
Summary: Mist
Clouds: Overcast
Visibility: 5 miles , 8 km
Cloud details: Partly cloudy 1000 ft
Overcast 3200 ft
2020/02/26 15:02 KPVD 261502Z 04008KT 5SM BR SCT010 OVC032 08/06 A2999 RMK AO2 T00780056
KGHG - Marshfield, Massachusetts, USA
Distance from station: ESE 49mi, 79km
Updated: Wed, 26-Feb-2020 9:55am EST
Overcast
Overcast
 Wind from NNW
Wind: NNW 6 mph , 9 km/h
Temperature: 45°F , 7°C
Wind Chill: 42°F , 6°C
Dew Point: 41°F , 5°C
Humidity: 87%
Barometer: 30.00 inHg , 1015.9 hPa
Clouds: Overcast
Visibility: 10 miles , 16 km
Cloud details: Overcast 600 ft
2020/02/26 14:55 KGHG 261455Z AUTO 34005KT 10SM OVC006 07/05 A3000 RMK AO2
 
KEEN - Keene/Dillant, New Hampshire, USA
Distance from station: NW 50mi, 81km
Updated: Wed, 26-Feb-2020 9:56am EST
Overcast
Overcast
 Wind from calm
Wind: Calm
Temperature: 39°F , 4°C
Dew Point: 37°F , 3°C
Humidity: 93%
Barometer: 29.99 inHg , 1015.6 hPa
Clouds: Overcast
Visibility: 8 miles , 13 km
Cloud details: Overcast 4600 ft
2020/02/26 14:56 KEEN 261456Z AUTO 00000KT 8SM OVC046 04/03 A2999 RMK AO2 RAB10E32 SLP162 P0000 60001 T00390033 50000 $